Terminal Aerodrome Forecast
Issued by NWS

Home | Current Version | Previous Version | Text Only | Print | Product List | Glossary On
Versions: 1 2 3 4 5 6 7 8 9 10 11 12 13 14 15 16 17 18 19 20 21 22 23 24 25 26 27 28 29 30 31
000
FTUS45 KGJT 212343
TAFRIL
TAF
KRIL 212343Z 2200/2224 VRB03KT P6SM VCSH SCT070 OVC090
     FM220030 VRB10G25KT P6SM -TSRA BKN060CB
     FM220200 20005KT P6SM VCSH SCT070 OVC100
     FM220500 VRB03KT P6SM BKN100
     FM222000 27008KT P6SM VCSH SCT060 BKN090=

USA.gov is the U.S. government's official web portal to all federal, state and local government web resources and services.